Time;durP1;ratioP1;P1;durP2;ratioP2;P2;SDS_P1;SDS_P2;PMS_P1;PMS_P2;Temp;Humidity;BMP_temperature;BMP_pressure;BME280_temperature;BME280_humidity;BME280_pressure;Samples;Min_cycle;Max_cycle;Signal;HPM_P1;HPM_P2
2023/05/20 00:00:48;;;;;;;10.73;4.30;;;13.20;99.90;;;;;;5018241;28;20060;-81
2023/05/20 00:03:14;;;;;;;10.95;4.22;;;13.20;99.90;;;;;;5016799;28;20061;-79
2023/05/20 00:05:40;;;;;;;8.23;3.85;;;13.10;99.90;;;;;;5023815;28;20484;-81
2023/05/20 00:08:08;;;;;;;14.27;4.63;;;13.10;99.90;;;;;;5016769;28;20072;-80
2023/05/20 00:10:34;;;;;;;12.77;3.97;;;13.10;99.90;;;;;;5018670;28;20046;-79
2023/05/20 00:13:00;;;;;;;10.07;4.50;;;13.10;99.90;;;;;;5012691;28;20081;-82
2023/05/20 00:15:26;;;;;;;12.50;4.50;;;13.10;99.90;;;;;;5019322;28;20038;-81
2023/05/20 00:17:52;;;;;;;11.10;4.38;;;13.00;99.90;;;;;;5015899;28;20041;-80
2023/05/20 00:20:17;;;;;;;7.95;3.33;;;13.00;99.90;;;;;;5015904;28;20052;-80
2023/05/20 00:22:43;;;;;;;8.52;3.28;;;13.00;99.90;;;;;;5019064;28;20045;-81
2023/05/20 00:25:09;;;;;;;12.30;4.30;;;12.90;99.90;;;;;;5011759;28;20481;-81
2023/05/20 00:27:34;;;;;;;8.75;3.53;;;12.90;99.90;;;;;;5017138;28;20084;-80
2023/05/20 00:30:00;;;;;;;14.70;4.55;;;12.90;99.90;;;;;;5015338;28;20496;-80
2023/05/20 00:32:25;;;;;;;7.88;3.67;;;12.90;99.90;;;;;;5009595;28;20124;-80
2023/05/20 00:34:58;;;;;;;9.43;4.13;;;12.90;99.90;;;;;;5017450;28;20045;-80
2023/05/20 00:37:24;;;;;;;7.82;3.60;;;12.80;99.90;;;;;;5019177;28;20124;-81
2023/05/20 00:39:50;;;;;;;10.25;4.78;;;12.80;99.90;;;;;;5010492;28;20045;-81
2023/05/20 00:42:23;;;;;;;10.02;4.15;;;12.80;99.90;;;;;;5012611;28;20045;-81
2023/05/20 00:44:48;;;;;;;13.90;5.10;;;12.70;99.90;;;;;;5017186;28;20037;-81
2023/05/20 00:47:19;;;;;;;10.65;4.35;;;12.70;99.90;;;;;;5015241;28;20042;-81
2023/05/20 00:49:46;;;;;;;10.82;4.47;;;12.70;99.90;;;;;;5013969;28;20405;-81
2023/05/20 00:52:13;;;;;;;9.07;4.20;;;12.60;99.90;;;;;;5019729;28;20171;-81
2023/05/20 00:54:39;;;;;;;10.07;4.45;;;12.60;99.90;;;;;;5020843;28;20045;-80
2023/05/20 00:57:06;;;;;;;11.95;4.78;;;12.60;99.90;;;;;;5014790;28;20386;-80
2023/05/20 00:59:34;;;;;;;14.73;5.10;;;12.50;99.90;;;;;;5016206;28;20506;-81
2023/05/20 01:02:01;;;;;;;8.82;3.80;;;12.50;99.90;;;;;;5011302;28;20049;-79
2023/05/20 01:04:26;;;;;;;15.07;3.60;;;12.50;99.90;;;;;;5022290;28;20045;-80
2023/05/20 01:06:52;;;;;;;8.82;4.53;;;12.50;99.90;;;;;;5011911;28;20064;-80
2023/05/20 01:09:18;;;;;;;10.35;4.78;;;12.50;99.90;;;;;;5013986;28;20033;-80
2023/05/20 01:11:49;;;;;;;14.25;4.47;;;12.50;99.90;;;;;;5017826;28;20121;-80
2023/05/20 01:14:17;;;;;;;10.40;4.38;;;12.50;99.90;;;;;;5016966;28;20037;-80
2023/05/20 01:16:44;;;;;;;7.90;4.05;;;12.40;99.90;;;;;;5019296;28;20045;-80
2023/05/20 01:19:26;;;;;;;8.85;4.13;;;12.40;99.90;;;;;;5018694;28;20033;-80
2023/05/20 01:21:54;;;;;;;7.97;3.70;;;12.40;99.90;;;;;;5013194;28;20041;-80
2023/05/20 01:24:19;;;;;;;8.98;4.35;;;12.40;99.90;;;;;;5015445;28;20034;-80
2023/05/20 01:26:47;;;;;;;11.40;4.03;;;12.30;99.90;;;;;;5017168;28;20882;-80
2023/05/20 01:29:17;;;;;;;9.02;3.80;;;12.30;99.90;;;;;;5018005;28;20080;-80
2023/05/20 01:31:44;;;;;;;9.23;3.38;;;12.30;99.90;;;;;;5010156;28;20069;-80
2023/05/20 01:34:11;;;;;;;9.93;3.50;;;12.30;99.90;;;;;;5009526;28;20040;-80
2023/05/20 01:36:39;;;;;;;9.20;3.30;;;12.30;99.90;;;;;;5009111;28;20046;-80
2023/05/20 01:39:05;;;;;;;10.35;4.00;;;12.30;99.90;;;;;;5013909;28;20026;-80
2023/05/20 01:41:33;;;;;;;9.20;4.40;;;12.20;99.90;;;;;;5009687;28;20051;-80
2023/05/20 01:43:59;;;;;;;8.73;4.25;;;12.30;99.90;;;;;;5012502;28;20046;-80
2023/05/20 01:46:25;;;;;;;9.93;4.63;;;12.20;99.90;;;;;;5015671;28;20037;-80
2023/05/20 01:48:53;;;;;;;9.13;4.35;;;12.20;99.90;;;;;;5016188;28;20038;-80
2023/05/20 01:51:19;;;;;;;7.38;3.85;;;12.10;99.90;;;;;;5015676;28;20722;-79
2023/05/20 01:53:44;;;;;;;10.45;4.57;;;12.10;99.90;;;;;;5012576;28;20041;-81
2023/05/20 01:56:10;;;;;;;9.10;3.63;;;12.10;99.90;;;;;;5013627;28;20185;-80
2023/05/20 01:58:36;;;;;;;11.00;5.10;;;12.00;99.90;;;;;;5020698;28;20046;-80
2023/05/20 02:01:02;;;;;;;8.10;3.95;;;12.20;99.90;;;;;;5012757;28;20050;-80
2023/05/20 02:03:28;;;;;;;5.95;3.38;;;12.00;99.90;;;;;;5011250;28;20038;-80
2023/05/20 02:05:53;;;;;;;9.02;4.10;;;12.00;99.90;;;;;;5019163;28;20271;-80
2023/05/20 02:08:19;;;;;;;11.85;4.45;;;12.00;99.90;;;;;;5012761;28;20140;-80
2023/05/20 02:10:47;;;;;;;9.50;4.05;;;11.90;99.90;;;;;;5013577;28;20037;-80
2023/05/20 02:13:12;;;;;;;7.43;3.65;;;11.90;99.90;;;;;;5022263;28;20026;-80
2023/05/20 02:15:41;;;;;;;9.18;4.30;;;11.90;99.90;;;;;;5014547;28;20515;-80
2023/05/20 02:18:07;;;;;;;7.50;3.55;;;11.90;99.90;;;;;;5015445;28;20037;-80
2023/05/20 02:20:35;;;;;;;8.15;3.50;;;11.90;99.90;;;;;;5015106;28;20559;-80
2023/05/20 02:23:01;;;;;;;6.50;2.80;;;11.90;99.90;;;;;;5015393;28;20049;-80
2023/05/20 02:25:27;;;;;;;9.57;4.78;;;11.90;99.90;;;;;;5019163;28;20065;-81
2023/05/20 02:27:53;;;;;;;8.45;4.00;;;11.90;99.90;;;;;;5013221;28;20038;-80
2023/05/20 02:30:18;;;;;;;9.75;3.72;;;11.90;99.90;;;;;;5014614;28;20512;-80
2023/05/20 02:32:44;;;;;;;11.23;4.50;;;11.90;99.90;;;;;;5012516;28;20108;-79
2023/05/20 02:35:10;;;;;;;8.32;3.22;;;11.80;99.90;;;;;;5012202;28;20042;-81
2023/05/20 02:37:37;;;;;;;8.50;3.67;;;11.80;99.90;;;;;;5017081;28;20048;-81
2023/05/20 02:40:03;;;;;;;8.00;4.00;;;11.80;99.90;;;;;;5014730;28;20042;-81
2023/05/20 02:42:29;;;;;;;9.43;3.90;;;11.70;99.90;;;;;;5015004;28;20187;-79
2023/05/20 02:44:57;;;;;;;8.98;4.55;;;11.80;99.90;;;;;;5014061;28;20532;-81
2023/05/20 02:47:24;;;;;;;9.75;3.72;;;11.70;99.90;;;;;;5012641;28;20034;-79
2023/05/20 02:49:49;;;;;;;7.90;3.75;;;11.70;99.90;;;;;;5008953;28;20038;-79
2023/05/20 02:52:15;;;;;;;7.20;3.63;;;11.70;99.90;;;;;;5018114;28;20042;-79
2023/05/20 02:54:41;;;;;;;8.13;3.90;;;11.70;99.90;;;;;;5021593;28;20050;-79
2023/05/20 02:57:06;;;;;;;8.10;3.95;;;11.70;99.90;;;;;;5015180;28;20041;-79
2023/05/20 02:59:32;;;;;;;9.68;3.88;;;11.80;99.90;;;;;;5020764;28;20041;-78
2023/05/20 03:01:58;;;;;;;6.57;3.40;;;11.50;99.90;;;;;;5017881;28;20557;-79
2023/05/20 03:04:25;;;;;;;8.18;3.95;;;11.70;99.90;;;;;;5017164;28;20682;-78
2023/05/20 03:06:50;;;;;;;8.57;4.20;;;11.70;99.90;;;;;;5017777;28;20480;-79
2023/05/20 03:09:18;;;;;;;9.48;4.22;;;11.70;99.90;;;;;;5016930;28;20045;-79
2023/05/20 03:11:44;;;;;;;10.40;3.80;;;11.70;99.90;;;;;;5013737;28;20504;-78
2023/05/20 03:14:10;;;;;;;9.00;4.20;;;11.60;99.90;;;;;;5022941;28;20121;-79
2023/05/20 03:16:36;;;;;;;8.38;3.60;;;11.60;99.90;;;;;;5015426;28;20042;-79
2023/05/20 03:19:01;;;;;;;8.27;3.78;;;11.60;99.90;;;;;;5015240;28;20069;-78
2023/05/20 03:21:28;;;;;;;5.78;2.78;;;11.60;99.90;;;;;;5010481;28;20599;-79
2023/05/20 03:23:53;;;;;;;6.28;2.97;;;11.60;99.90;;;;;;5013595;28;20134;-78
2023/05/20 03:26:20;;;;;;;6.57;3.35;;;11.60;99.90;;;;;;5011612;28;20069;-79
2023/05/20 03:28:46;;;;;;;8.00;3.55;;;11.60;99.90;;;;;;5013467;28;20114;-78
2023/05/20 03:31:11;;;;;;;8.27;3.28;;;11.50;99.90;;;;;;5010134;28;20529;-79
2023/05/20 03:33:38;;;;;;;7.72;3.25;;;11.50;99.90;;;;;;5017182;28;20053;-79
2023/05/20 03:36:03;;;;;;;8.18;3.38;;;11.50;99.90;;;;;;5016637;28;20045;-79
2023/05/20 03:38:29;;;;;;;7.65;3.33;;;11.50;99.90;;;;;;5020120;28;20092;-78
2023/05/20 03:40:55;;;;;;;6.68;3.33;;;11.50;99.90;;;;;;5004715;28;20468;-79
2023/05/20 03:43:21;;;;;;;8.82;2.97;;;11.60;99.90;;;;;;5012051;28;20057;-79
2023/05/20 03:45:46;;;;;;;8.52;3.75;;;11.50;99.90;;;;;;5012967;28;20045;-79
2023/05/20 03:48:12;;;;;;;7.80;3.35;;;11.50;99.90;;;;;;5016551;28;20034;-79
2023/05/20 03:50:37;;;;;;;6.63;2.72;;;11.50;99.90;;;;;;5018180;28;20056;-79
2023/05/20 03:53:03;;;;;;;8.52;3.55;;;11.50;99.90;;;;;;5013484;28;20033;-79
2023/05/20 03:55:28;;;;;;;7.25;2.75;;;11.50;99.90;;;;;;5018662;28;20044;-78
2023/05/20 03:57:54;;;;;;;7.72;2.15;;;11.60;99.90;;;;;;5020733;28;20099;-79
2023/05/20 04:00:20;;;;;;;7.18;3.25;;;11.60;99.90;;;;;;5017436;28;20046;-79
2023/05/20 04:02:46;;;;;;;5.70;2.88;;;11.50;99.90;;;;;;5014833;28;20444;-79
2023/05/20 04:05:11;;;;;;;4.72;2.17;;;11.50;99.90;;;;;;5022367;28;20041;-78
2023/05/20 04:07:37;;;;;;;9.00;2.80;;;11.50;99.90;;;;;;5013716;28;20563;-79
2023/05/20 04:10:03;;;;;;;6.93;2.97;;;11.60;99.90;;;;;;5018188;28;20065;-79
2023/05/20 04:12:31;;;;;;;7.45;2.70;;;11.50;99.90;;;;;;5018226;28;20049;-78
2023/05/20 04:15:00;;;;;;;7.07;2.40;;;11.50;99.90;;;;;;5014004;28;20073;-79
2023/05/20 04:17:30;;;;;;;9.63;2.80;;;11.60;99.90;;;;;;5019995;28;20546;-79
2023/05/20 04:19:58;;;;;;;6.38;2.90;;;11.50;99.90;;;;;;5013693;28;20526;-79
2023/05/20 04:22:24;;;;;;;5.75;3.20;;;11.60;99.90;;;;;;5015568;28;20056;-79
2023/05/20 04:24:50;;;;;;;6.18;2.95;;;11.50;99.90;;;;;;5020854;28;20048;-79
2023/05/20 04:27:15;;;;;;;7.35;2.50;;;11.60;99.90;;;;;;5012208;28;20487;-79
2023/05/20 04:29:44;;;;;;;5.78;2.58;;;11.60;99.90;;;;;;5016555;28;20050;-79
2023/05/20 04:32:12;;;;;;;5.10;2.50;;;11.60;99.90;;;;;;5019185;28;20049;-79
2023/05/20 04:34:38;;;;;;;5.88;2.47;;;11.60;99.90;;;;;;5012634;28;20488;-79
2023/05/20 04:37:06;;;;;;;5.85;2.45;;;11.60;99.90;;;;;;5017806;28;20045;-79
2023/05/20 04:39:32;;;;;;;5.32;2.40;;;11.60;99.90;;;;;;5012972;28;20069;-79
2023/05/20 04:41:58;;;;;;;4.40;2.17;;;11.60;99.90;;;;;;5014828;28;20072;-79
2023/05/20 04:44:25;;;;;;;5.78;2.30;;;11.60;99.90;;;;;;5016564;28;20293;-79
2023/05/20 04:46:51;;;;;;;7.10;2.42;;;11.70;99.90;;;;;;5016634;28;20112;-79
2023/05/20 04:49:17;;;;;;;5.20;2.70;;;11.70;99.90;;;;;;5018166;28;20037;-79
2023/05/20 04:51:43;;;;;;;4.70;2.38;;;11.70;99.90;;;;;;5018686;28;20063;-79
2023/05/20 04:54:09;;;;;;;5.40;2.25;;;11.80;99.90;;;;;;5021710;28;20052;-79
2023/05/20 04:56:35;;;;;;;6.68;3.17;;;11.80;99.90;;;;;;5011280;28;20038;-79
2023/05/20 04:59:00;;;;;;;5.25;2.08;;;11.80;99.90;;;;;;5011932;28;20121;-78
2023/05/20 05:01:26;;;;;;;7.25;2.20;;;11.80;99.90;;;;;;5019003;28;20116;-79
2023/05/20 05:03:52;;;;;;;5.82;2.03;;;11.80;99.90;;;;;;5021208;28;20400;-79
2023/05/20 05:06:17;;;;;;;5.30;2.08;;;11.90;99.90;;;;;;5014547;28;20073;-79
2023/05/20 05:08:43;;;;;;;3.42;1.63;;;11.90;99.90;;;;;;5013224;28;20222;-79
2023/05/20 05:11:09;;;;;;;4.32;1.92;;;12.00;99.90;;;;;;5016267;28;20484;-79
2023/05/20 05:13:34;;;;;;;3.15;2.00;;;11.90;99.90;;;;;;5015187;28;20042;-79
2023/05/20 05:16:01;;;;;;;5.65;1.80;;;12.00;99.90;;;;;;5015741;28;20041;-78
2023/05/20 05:18:26;;;;;;;4.43;1.70;;;12.00;99.90;;;;;;5020928;28;20480;-79
2023/05/20 05:21:07;;;;;;;4.25;1.90;;;12.10;99.90;;;;;;5019591;28;20046;-78
2023/05/20 05:23:33;;;;;;;5.53;1.75;;;12.10;99.90;;;;;;5011990;28;20084;-79
2023/05/20 05:25:58;;;;;;;3.65;1.52;;;12.10;99.90;;;;;;5016178;28;20127;-78
2023/05/20 05:28:24;;;;;;;3.75;1.20;;;12.10;99.90;;;;;;5015367;28;20037;-79
2023/05/20 05:30:52;;;;;;;5.65;1.60;;;12.20;99.90;;;;;;5016699;28;20053;-79
2023/05/20 05:33:18;;;;;;;5.63;2.13;;;12.20;99.90;;;;;;5012555;28;20038;-79
2023/05/20 05:35:43;;;;;;;5.95;1.70;;;12.30;99.90;;;;;;5014348;28;20597;-78
2023/05/20 05:38:09;;;;;;;6.97;1.90;;;12.30;99.90;;;;;;5010391;28;20656;-79
2023/05/20 05:40:35;;;;;;;3.67;1.60;;;12.40;99.90;;;;;;5023525;28;20045;-80
2023/05/20 05:43:00;;;;;;;3.78;1.48;;;12.50;99.90;;;;;;5002088;28;20041;-78
2023/05/20 05:45:26;;;;;;;5.15;1.60;;;12.50;99.90;;;;;;5019207;28;20056;-82
2023/05/20 05:47:53;;;;;;;3.45;1.33;;;12.50;99.90;;;;;;5014670;28;20037;-79
2023/05/20 05:50:18;;;;;;;3.58;1.30;;;12.50;99.90;;;;;;5016952;28;20096;-79
2023/05/20 05:52:44;;;;;;;3.20;1.40;;;12.50;99.90;;;;;;5013738;28;20044;-79
2023/05/20 05:55:10;;;;;;;4.75;1.45;;;12.60;99.90;;;;;;5021557;28;20491;-79
2023/05/20 05:57:36;;;;;;;5.47;1.50;;;12.50;99.90;;;;;;5012614;28;20333;-79
2023/05/20 06:00:02;;;;;;;4.47;1.13;;;12.50;99.90;;;;;;5017502;28;20495;-79
2023/05/20 06:02:27;;;;;;;3.92;1.40;;;12.50;99.90;;;;;;5014301;28;20046;-79
2023/05/20 06:04:53;;;;;;;4.13;1.45;;;12.50;99.90;;;;;;5010210;28;20164;-78
2023/05/20 06:07:19;;;;;;;5.15;1.23;;;12.50;99.90;;;;;;5015278;28;20033;-79
2023/05/20 06:09:44;;;;;;;3.42;1.30;;;12.50;99.90;;;;;;5017993;28;20037;-80
2023/05/20 06:12:10;;;;;;;3.70;1.20;;;12.50;99.90;;;;;;5014333;28;20516;-80
2023/05/20 06:14:35;;;;;;;5.43;1.52;;;12.50;99.90;;;;;;5020120;28;20112;-80
2023/05/20 06:17:02;;;;;;;3.35;1.30;;;12.50;99.90;;;;;;5015416;28;20065;-80
2023/05/20 06:19:28;;;;;;;7.25;1.70;;;12.50;99.90;;;;;;5012528;28;21655;-81
2023/05/20 06:21:54;;;;;;;5.43;1.13;;;12.50;99.90;;;;;;5019294;28;20492;-81
2023/05/20 06:24:20;;;;;;;3.78;1.30;;;12.60;99.90;;;;;;5012161;28;20042;-81
2023/05/20 06:26:48;;;;;;;3.88;1.17;;;12.60;99.90;;;;;;5011686;28;20084;-80
2023/05/20 06:29:14;;;;;;;5.82;1.40;;;12.60;99.90;;;;;;5019276;28;20597;-81
2023/05/20 06:31:39;;;;;;;4.55;1.30;;;12.60;99.90;;;;;;5011811;28;20045;-80
2023/05/20 06:34:05;;;;;;;3.38;1.10;;;12.60;99.90;;;;;;5024041;28;20187;-80
2023/05/20 06:36:33;;;;;;;3.40;1.33;;;12.60;99.90;;;;;;5012700;28;20432;-80
2023/05/20 06:38:59;;;;;;;3.42;1.25;;;12.70;99.90;;;;;;5008387;28;20042;-80
2023/05/20 06:41:25;;;;;;;5.03;1.30;;;12.70;99.90;;;;;;5010488;28;20042;-80
2023/05/20 06:43:51;;;;;;;4.47;1.13;;;12.70;99.90;;;;;;5012271;28;20361;-80
2023/05/20 06:46:16;;;;;;;4.97;1.10;;;12.70;99.90;;;;;;5007414;28;20048;-79
2023/05/20 06:48:42;;;;;;;3.78;1.30;;;12.80;99.90;;;;;;5011352;28;20453;-79
2023/05/20 06:51:08;;;;;;;4.97;1.48;;;12.80;99.90;;;;;;5023275;28;20041;-80
2023/05/20 06:53:34;;;;;;;3.35;1.00;;;12.90;99.90;;;;;;5014060;28;20033;-80
2023/05/20 06:56:00;;;;;;;4.88;1.30;;;12.90;99.90;;;;;;5014163;28;20473;-80
2023/05/20 06:58:26;;;;;;;6.07;1.23;;;12.80;99.90;;;;;;5010561;28;20037;-80
2023/05/20 07:00:51;;;;;;;4.40;1.15;;;12.80;99.90;;;;;;5014184;28;20044;-80
2023/05/20 07:03:17;;;;;;;2.10;1.13;;;12.90;99.90;;;;;;5012225;28;20042;-81
2023/05/20 07:05:43;;;;;;;11.02;1.70;;;12.90;99.90;;;;;;5013374;28;20034;-81
2023/05/20 07:08:09;;;;;;;4.93;2.38;;;13.00;99.90;;;;;;5016108;28;20792;-82
2023/05/20 07:10:34;;;;;;;4.45;1.20;;;13.00;99.90;;;;;;5020903;28;20038;-79
2023/05/20 07:13:00;;;;;;;5.38;1.05;;;13.10;99.90;;;;;;5017887;28;20116;-79
2023/05/20 07:15:26;;;;;;;4.20;1.23;;;13.20;99.90;;;;;;5023510;28;20041;-79
2023/05/20 07:17:52;;;;;;;4.22;1.27;;;13.40;99.90;;;;;;5015095;28;20041;-79
2023/05/20 07:20:17;;;;;;;3.95;1.50;;;13.70;99.90;;;;;;5024719;28;20049;-81
2023/05/20 07:22:43;;;;;;;4.32;1.20;;;14.00;99.90;;;;;;5017748;28;20041;-83
2023/05/20 07:25:09;;;;;;;3.97;1.23;;;14.30;99.90;;;;;;5021157;28;20464;-81
2023/05/20 07:27:35;;;;;;;6.07;1.20;;;14.50;99.90;;;;;;5018155;28;20041;-81
2023/05/20 07:30:01;;;;;;;5.25;1.38;;;14.80;99.90;;;;;;5022044;28;20433;-81
2023/05/20 07:32:26;;;;;;;4.40;1.40;;;15.00;99.90;;;;;;5016860;28;20524;-83
2023/05/20 07:34:52;;;;;;;4.70;1.38;;;15.20;99.90;;;;;;5018932;28;20034;-82
2023/05/20 07:37:18;;;;;;;4.95;1.40;;;15.40;99.90;;;;;;5020838;28;20072;-83
2023/05/20 07:39:43;;;;;;;7.60;1.88;;;15.60;99.90;;;;;;5017514;28;20033;-92
2023/05/20 07:42:09;;;;;;;5.00;1.40;;;15.80;99.90;;;;;;5015795;28;20046;-82
2023/05/20 07:44:35;;;;;;;4.25;1.17;;;15.90;99.90;;;;;;5014280;28;20042;-82
2023/05/20 07:47:00;;;;;;;3.28;1.30;;;16.00;99.90;;;;;;5021475;28;20029;-92
2023/05/20 07:49:26;;;;;;;4.13;1.42;;;16.10;99.90;;;;;;5014790;28;20390;-89
2023/05/20 07:51:51;;;;;;;4.15;1.42;;;16.20;99.90;;;;;;5014845;28;20130;-82
2023/05/20 07:54:17;;;;;;;3.97;1.35;;;16.20;99.90;;;;;;5014143;28;20392;-83
2023/05/20 07:56:43;;;;;;;5.32;1.30;;;16.30;99.90;;;;;;5022114;28;20037;-83
2023/05/20 07:59:08;;;;;;;3.05;1.30;;;16.30;99.90;;;;;;5023742;28;20524;-84
2023/05/20 08:01:34;;;;;;;7.80;1.63;;;16.50;99.90;;;;;;5018447;28;20572;-81
2023/05/20 08:03:59;;;;;;;2.47;1.10;;;16.50;99.90;;;;;;5021780;28;20048;-86
2023/05/20 08:06:25;;;;;;;6.53;1.77;;;16.50;99.90;;;;;;5015454;28;20034;-82
2023/05/20 08:08:52;;;;;;;3.55;1.23;;;16.60;99.90;;;;;;5008026;28;20037;-82
2023/05/20 08:11:18;;;;;;;5.10;1.38;;;16.70;99.90;;;;;;5018626;28;20124;-90
2023/05/20 08:13:44;;;;;;;4.15;1.38;;;16.70;99.90;;;;;;5012406;28;20473;-82
2023/05/20 08:16:10;;;;;;;3.60;1.27;;;16.80;99.90;;;;;;5014394;28;20038;-82
2023/05/20 08:18:36;;;;;;;5.50;1.50;;;16.90;99.90;;;;;;5019869;28;20693;-82
2023/05/20 08:21:02;;;;;;;5.18;1.70;;;16.90;99.90;;;;;;5015435;28;20500;-81
2023/05/20 08:23:28;;;;;;;4.55;1.40;;;16.90;99.90;;;;;;5023228;28;20057;-86
2023/05/20 08:25:53;;;;;;;7.18;1.70;;;17.00;99.90;;;;;;5018630;28;20459;-86
2023/05/20 08:28:20;;;;;;;2.70;1.20;;;17.10;99.90;;;;;;5017528;28;20041;-86
2023/05/20 08:30:47;;;;;;;4.63;1.90;;;17.10;99.90;;;;;;5021226;28;20045;-85
2023/05/20 08:33:13;;;;;;;6.32;1.70;;;17.20;99.90;;;;;;5013278;28;20050;-84
2023/05/20 08:35:39;;;;;;;4.75;1.50;;;17.20;99.90;;;;;;5014396;28;20076;-85
2023/05/20 08:38:05;;;;;;;5.10;1.60;;;17.30;99.90;;;;;;5015041;28;20056;-84
2023/05/20 08:40:34;;;;;;;5.97;1.98;;;17.30;99.90;;;;;;5016129;28;20468;-85
2023/05/20 08:43:00;;;;;;;5.90;1.95;;;17.40;99.90;;;;;;5010256;28;20033;-85
2023/05/20 08:45:27;;;;;;;7.22;1.63;;;17.40;99.90;;;;;;5008928;28;20586;-85
2023/05/20 08:47:53;;;;;;;5.88;1.77;;;17.50;99.90;;;;;;5016894;28;20048;-85
2023/05/20 08:50:19;;;;;;;3.67;1.70;;;17.80;99.90;;;;;;5010202;28;20041;-85
2023/05/20 08:52:47;;;;;;;5.90;2.03;;;17.80;99.90;;;;;;5010396;28;20096;-85
2023/05/20 08:55:21;;;;;;;4.57;1.45;;;17.90;99.90;;;;;;5013980;28;20042;-85
2023/05/20 08:57:53;;;;;;;4.25;1.48;;;17.90;99.90;;;;;;5010907;28;20069;-85
2023/05/20 09:00:22;;;;;;;5.45;1.60;;;18.00;99.90;;;;;;5012153;28;20038;-85
2023/05/20 09:02:48;;;;;;;7.88;2.50;;;18.10;99.90;;;;;;5013371;28;20026;-85
2023/05/20 09:05:14;;;;;;;4.53;1.42;;;18.20;99.90;;;;;;5010020;28;20560;-87
2023/05/20 09:07:42;;;;;;;6.05;1.75;;;18.30;99.90;;;;;;5010390;28;20038;-87
2023/05/20 09:10:08;;;;;;;4.50;1.52;;;18.30;99.90;;;;;;5012501;28;20071;-86
2023/05/20 09:12:34;;;;;;;3.75;1.63;;;18.40;99.90;;;;;;5010124;28;20052;-85
2023/05/20 09:15:00;;;;;;;5.30;1.70;;;18.40;99.90;;;;;;5009938;28;20073;-86
2023/05/20 09:17:26;;;;;;;5.72;1.92;;;18.50;99.90;;;;;;5015424;28;20518;-86
2023/05/20 09:19:54;;;;;;;3.85;1.63;;;18.60;99.90;;;;;;5009062;28;20050;-86
2023/05/20 09:22:28;;;;;;;4.32;1.75;;;18.60;99.90;;;;;;5009996;28;20108;-86
2023/05/20 09:24:54;;;;;;;5.20;1.83;;;18.60;99.90;;;;;;5022295;28;20034;-86
2023/05/20 09:27:20;;;;;;;5.63;1.80;;;18.80;99.90;;;;;;5011908;28;20346;-86
2023/05/20 09:29:47;;;;;;;4.40;1.70;;;18.80;99.90;;;;;;5008607;28;20041;-86
2023/05/20 09:32:13;;;;;;;4.07;1.70;;;18.80;99.90;;;;;;5016302;28;20038;-85
2023/05/20 09:34:44;;;;;;;6.50;1.92;;;19.00;99.90;;;;;;5015870;28;20029;-85
2023/05/20 09:37:10;;;;;;;5.65;1.85;;;19.00;99.90;;;;;;5016788;28;20078;-86
2023/05/20 09:40:06;;;;;;;6.53;1.80;;;19.00;99.90;;;;;;5009799;28;20042;-86
2023/05/20 09:42:51;;;;;;;5.45;1.90;;;19.20;99.90;;;;;;5016952;28;20083;-85
2023/05/20 09:45:17;;;;;;;3.88;1.60;;;19.30;99.90;;;;;;5009573;28;20048;-86
2023/05/20 09:47:44;;;;;;;4.07;1.58;;;19.40;99.90;;;;;;5010911;28;20041;-86
2023/05/20 09:50:11;;;;;;;4.50;1.88;;;19.40;99.90;;;;;;5010114;28;20034;-85
2023/05/20 09:52:38;;;;;;;4.50;1.67;;;19.60;99.90;;;;;;5009392;28;20045;-86
2023/05/20 09:55:09;;;;;;;3.20;1.70;;;19.60;99.90;;;;;;5011463;28;20045;-85
2023/05/20 09:57:36;;;;;;;4.75;1.77;;;19.70;99.90;;;;;;5009239;28;20493;-86
2023/05/20 10:00:04;;;;;;;6.20;2.13;;;19.70;99.90;;;;;;5015242;28;20512;-86
2023/05/20 10:02:31;;;;;;;6.78;2.03;;;19.80;99.90;;;;;;5013512;28;20563;-86
2023/05/20 10:04:59;;;;;;;4.47;1.70;;;19.90;99.90;;;;;;5009191;28;20051;-86
2023/05/20 10:07:52;;;;;;;4.20;1.80;;;19.90;99.90;;;;;;5010485;28;20583;-86
2023/05/20 10:10:37;;;;;;;7.45;2.03;;;20.00;99.90;;;;;;5014388;28;20168;-86
2023/05/20 10:13:36;;;;;;;6.30;2.38;;;20.10;99.90;;;;;;5008797;28;20053;-86
2023/05/20 10:16:35;;;;;;;3.95;1.90;;;20.30;99.70;;;;;;5009135;28;20516;-89
2023/05/20 10:19:06;;;;;;;4.13;2.10;;;20.30;99.40;;;;;;5012620;28;20049;-89
2023/05/20 10:21:32;;;;;;;10.38;2.47;;;20.30;99.60;;;;;;5010886;28;20050;-86
2023/05/20 10:24:09;;;;;;;6.80;2.30;;;20.30;99.50;;;;;;5007490;28;20038;-86
2023/05/20 10:26:40;;;;;;;6.88;2.33;;;20.40;99.50;;;;;;5013275;28;20045;-86
2023/05/20 10:29:16;;;;;;;10.48;2.42;;;20.40;98.80;;;;;;5010531;28;20140;-86
2023/05/20 10:31:49;;;;;;;7.43;2.20;;;20.30;98.40;;;;;;5009694;28;20071;-86
2023/05/20 10:34:16;;;;;;;5.13;2.17;;;20.20;99.10;;;;;;5012825;28;20045;-85
2023/05/20 10:36:54;;;;;;;5.28;2.13;;;20.30;98.90;;;;;;5011264;28;20041;-84
2023/05/20 10:39:32;;;;;;;6.03;2.30;;;20.20;98.70;;;;;;5016314;28;20041;-81
2023/05/20 10:42:08;;;;;;;4.85;1.90;;;20.00;98.20;;;;;;5012234;28;20049;-80
2023/05/20 10:44:41;;;;;;;5.18;2.05;;;20.10;98.80;;;;;;5018839;28;20037;-83
2023/05/20 10:47:06;;;;;;;4.32;2.50;;;20.20;99.20;;;;;;5023499;28;20037;-80
2023/05/20 10:49:43;;;;;;;5.03;2.25;;;20.30;98.90;;;;;;5019159;28;20226;-80
2023/05/20 10:52:09;;;;;;;4.25;1.77;;;20.40;98.70;;;;;;5012280;28;20038;-81
2023/05/20 10:54:55;;;;;;;7.20;2.17;;;20.60;98.60;;;;;;5012538;28;20041;-81
2023/05/20 10:57:21;;;;;;;4.68;2.00;;;20.70;98.50;;;;;;5012832;28;20038;-81
2023/05/20 10:59:47;;;;;;;4.90;1.80;;;20.80;98.20;;;;;;5011145;28;20038;-81
2023/05/20 11:02:15;;;;;;;6.47;2.60;;;20.90;98.40;;;;;;5012204;28;20503;-81
2023/05/20 11:04:46;;;;;;;5.53;1.80;;;20.80;97.80;;;;;;5013133;28;20041;-81
2023/05/20 11:07:12;;;;;;;4.97;1.77;;;20.70;97.80;;;;;;5012434;28;20102;-81
2023/05/20 11:09:38;;;;;;;4.57;1.88;;;20.60;97.90;;;;;;5012524;28;20034;-81
2023/05/20 11:12:04;;;;;;;5.28;1.88;;;20.70;98.20;;;;;;5012189;28;20049;-81
2023/05/20 11:14:30;;;;;;;4.53;1.80;;;20.80;98.30;;;;;;5012012;28;20053;-81
2023/05/20 11:16:59;;;;;;;4.35;1.70;;;21.00;98.30;;;;;;5012102;28;20130;-81
2023/05/20 11:19:27;;;;;;;4.45;2.10;;;21.00;98.00;;;;;;5011868;28;20061;-80
2023/05/20 11:21:53;;;;;;;5.88;1.80;;;21.00;97.20;;;;;;5011768;28;20045;-81
2023/05/20 11:24:25;;;;;;;5.18;1.45;;;20.90;97.40;;;;;;5012046;28;20076;-79
2023/05/20 11:26:51;;;;;;;3.97;1.40;;;20.90;97.30;;;;;;5011780;28;20099;-78
2023/05/20 11:29:18;;;;;;;4.07;1.40;;;20.90;97.00;;;;;;5011519;28;20045;-78
2023/05/20 11:31:44;;;;;;;6.68;1.65;;;20.80;97.00;;;;;;5012120;28;20084;-78
2023/05/20 11:34:11;;;;;;;4.22;1.60;;;20.80;96.70;;;;;;5011578;28;20092;-78
2023/05/20 11:36:41;;;;;;;10.02;1.95;;;20.90;96.40;;;;;;5011841;28;20037;-79
2023/05/20 11:39:10;;;;;;;4.63;1.25;;;21.00;97.10;;;;;;5011523;28;20042;-80
2023/05/20 11:41:35;;;;;;;4.93;2.00;;;21.00;96.50;;;;;;5017416;28;20038;-81
2023/05/20 11:44:01;;;;;;;3.90;1.63;;;21.00;96.30;;;;;;5011190;28;20507;-80
2023/05/20 11:46:27;;;;;;;5.38;1.52;;;20.90;96.40;;;;;;5011779;28;20504;-80
2023/05/20 11:48:53;;;;;;;6.97;1.85;;;20.90;96.20;;;;;;5011198;28;20030;-80
2023/05/20 11:51:29;;;;;;;4.35;1.33;;;20.90;96.70;;;;;;5011100;28;20132;-81
2023/05/20 11:54:01;;;;;;;4.15;1.60;;;21.10;95.90;;;;;;5011473;28;20041;-81
2023/05/20 11:56:32;;;;;;;5.53;1.70;;;21.20;96.40;;;;;;5017092;28;20116;-80
2023/05/20 11:59:02;;;;;;;3.78;1.77;;;21.20;95.80;;;;;;5010701;28;20038;-81
2023/05/20 12:01:32;;;;;;;8.77;1.55;;;21.20;95.70;;;;;;5011265;28;20046;-80
2023/05/20 12:03:58;;;;;;;4.85;1.75;;;21.20;96.00;;;;;;5014312;28;20030;-81
2023/05/20 12:06:24;;;;;;;5.35;1.60;;;21.20;96.00;;;;;;5010595;28;20046;-81
2023/05/20 12:08:50;;;;;;;3.25;1.38;;;21.30;96.20;;;;;;5011191;28;20030;-81
2023/05/20 12:11:15;;;;;;;5.28;1.75;;;21.30;96.30;;;;;;5011347;28;20089;-81
2023/05/20 12:13:41;;;;;;;3.85;1.70;;;21.30;95.70;;;;;;5009169;28;20073;-81
2023/05/20 12:16:07;;;;;;;6.68;1.80;;;21.20;95.40;;;;;;5010641;28;20358;-81
2023/05/20 12:18:33;;;;;;;4.90;1.70;;;21.20;95.70;;;;;;5011560;28;20042;-81
2023/05/20 12:20:59;;;;;;;5.57;1.50;;;21.10;95.60;;;;;;5009624;28;20054;-81
2023/05/20 12:23:25;;;;;;;6.50;1.60;;;21.20;95.80;;;;;;5009559;28;20042;-81
2023/05/20 12:25:51;;;;;;;4.47;1.40;;;21.30;95.90;;;;;;5010760;28;20092;-81
2023/05/20 12:28:16;;;;;;;4.30;1.30;;;21.50;95.60;;;;;;5009076;28;20038;-81
2023/05/20 12:30:42;;;;;;;3.05;1.20;;;21.60;95.90;;;;;;5009678;28;20512;-80
2023/05/20 12:33:08;;;;;;;5.28;1.58;;;21.60;95.60;;;;;;5010659;28;20040;-81
2023/05/20 12:35:39;;;;;;;3.40;1.50;;;21.60;95.40;;;;;;5010951;28;20276;-81
2023/05/20 12:38:06;;;;;;;4.30;1.38;;;21.50;95.40;;;;;;5017556;28;20384;-81
2023/05/20 12:40:31;;;;;;;5.93;1.67;;;21.40;95.30;;;;;;5014551;28;20088;-80
2023/05/20 12:42:58;;;;;;;6.60;1.58;;;21.40;95.30;;;;;;5009797;28;20084;-81
2023/05/20 12:45:24;;;;;;;5.47;1.60;;;21.50;95.10;;;;;;5010838;28;20052;-81